Time,TemperatureF,DewpointF,PressureIn,WindDirection,WindDirectionDegrees,WindSpeedMPH,WindSpeedGustMPH,Humidity,HourlyPrecipIn,Conditions,Clouds,dailyrainin,SoftwareType,DateUTC
2013-01-25 00:00:00,63.8,57.9,30.09,NE,40,3.0,3.0,81,0.00,,,0.00,VWS V14.01,2013-01-25 06:00:00,
2013-01-25 00:05:00,61.7,56.8,30.07,South,175,0.0,3.0,84,0.00,,,0.00,VWS V14.01,2013-01-25 06:05:00,
2013-01-25 00:10:00,63.3,57.4,30.09,NE,53,2.0,4.0,81,0.00,,,0.00,VWS V14.01,2013-01-25 06:10:00,
2013-01-25 00:15:00,63.0,56.7,30.09,NE,52,0.0,2.0,80,0.00,,,0.00,VWS V14.01,2013-01-25 06:15:00,
2013-01-25 00:20:00,62.5,56.6,30.08,ENE,59,3.0,3.0,81,0.00,,,0.00,VWS V14.01,2013-01-25 06:20:00,
2013-01-25 00:25:00,63.8,57.5,30.07,SE,139,4.0,4.0,80,0.00,,,0.00,VWS V14.01,2013-01-25 06:25:00,
2013-01-25 00:30:00,61.9,56.7,30.08,ENE,72,1.0,1.0,83,0.00,,,0.00,VWS V14.01,2013-01-25 06:30:00,
2013-01-25 00:35:00,61.8,56.2,30.08,SE,129,0.0,3.0,82,0.00,,,0.00,VWS V14.01,2013-01-25 06:35:00,
2013-01-25 00:40:00,61.6,56.7,30.08,SE,129,0.0,1.0,84,0.00,,,0.00,VWS V14.01,2013-01-25 06:40:00,
2013-01-25 00:45:00,61.8,56.6,30.08,SE,128,0.0,0.0,83,0.00,,,0.00,VWS V14.01,2013-01-25 06:45:00,
2013-01-25 00:50:00,61.5,56.6,30.07,SE,130,0.0,0.0,84,0.00,,,0.00,VWS V14.01,2013-01-25 06:50:00,
2013-01-25 00:55:00,61.7,56.5,30.07,SE,136,3.0,3.0,83,0.00,,,0.00,VWS V14.01,2013-01-25 06:55:00,
2013-01-25 01:00:00,61.6,56.7,30.07,SE,133,0.0,3.0,84,0.00,,,0.00,VWS V14.01,2013-01-25 07:00:00,
2013-01-25 01:05:00,61.7,56.8,30.07,South,175,0.0,3.0,84,0.00,,,0.00,VWS V14.01,2013-01-25 07:05:00,
2013-01-25 01:10:00,62.2,57.3,30.07,SE,142,2.0,3.0,84,0.00,,,0.00,VWS V14.01,2013-01-25 07:10:00,
2013-01-25 01:15:00,63.0,57.8,30.07,South,172,6.0,14.0,83,0.00,,,0.00,VWS V14.01,2013-01-25 07:15:00,
2013-01-25 01:20:00,63.7,57.8,30.07,SSE,149,3.0,7.0,81,0.00,,,0.00,VWS V14.01,2013-01-25 07:20:00,
2013-01-25 01:25:00,63.8,57.5,30.07,SE,139,4.0,4.0,80,0.00,,,0.00,VWS V14.01,2013-01-25 07:25:00,
2013-01-25 01:30:00,63.9,57.6,30.07,ESE,120,3.0,4.0,80,0.00,,,0.00,VWS V14.01,2013-01-25 07:30:00,
2013-01-25 01:35:00,63.4,56.8,30.07,SE,125,0.0,4.0,79,0.00,,,0.00,VWS V14.01,2013-01-25 07:35:00,
2013-01-25 01:40:00,62.8,56.9,30.07,ESE,118,1.0,3.0,81,0.00,,,0.00,VWS V14.01,2013-01-25 07:40:00,
2013-01-25 01:45:00,62.6,56.7,30.07,ESE,120,1.0,5.0,81,0.00,,,0.00,VWS V14.01,2013-01-25 07:45:00,
2013-01-25 01:50:00,63.4,58.2,30.05,South,187,4.0,6.0,83,0.00,,,0.00,VWS V14.01,2013-01-25 07:50:00,
2013-01-25 01:55:00,62.4,57.2,30.07,NE,56,3.0,5.0,83,0.00,,,0.00,VWS V14.01,2013-01-25 07:55:00,
2013-01-25 02:00:00,62.7,57.5,30.07,SE,136,4.0,4.0,83,0.00,,,0.00,VWS V14.01,2013-01-25 08:00:00,
2013-01-25 02:05:00,63.1,57.5,30.07,NE,50,1.0,4.0,82,0.00,,,0.00,VWS V14.01,2013-01-25 08:05:00,
2013-01-25 02:10:00,63.7,58.5,30.05,SSE,168,4.0,7.0,83,0.00,,,0.00,VWS V14.01,2013-01-25 08:10:00,
2013-01-25 02:15:00,63.3,57.0,30.07,NE,54,0.0,2.0,80,0.00,,,0.00,VWS V14.01,2013-01-25 08:15:00,
2013-01-25 02:20:00,62.8,57.2,30.06,SE,133,3.0,3.0,82,0.00,,,0.00,VWS V14.01,2013-01-25 08:20:00,
2013-01-25 02:25:00,62.1,56.9,30.06,SSE,154,1.0,4.0,83,0.00,,,0.00,VWS V14.01,2013-01-25 08:25:00,
2013-01-25 02:30:00,62.5,57.6,30.06,SSW,193,3.0,6.0,84,0.00,,,0.00,VWS V14.01,2013-01-25 08:30:00,
2013-01-25 02:35:00,62.6,57.4,30.06,South,186,3.0,5.0,83,0.00,,,0.00,VWS V14.01,2013-01-25 08:35:00,
2013-01-25 02:40:00,62.8,57.6,30.06,SSE,165,2.0,5.0,83,0.00,,,0.00,VWS V14.01,2013-01-25 08:40:00,
2013-01-25 02:45:00,63.2,57.6,30.06,South,180,3.0,9.0,82,0.00,,,0.00,VWS V14.01,2013-01-25 08:45:00,
2013-01-25 02:50:00,63.4,58.2,30.05,South,187,4.0,6.0,83,0.00,,,0.00,VWS V14.01,2013-01-25 08:50:00,
2013-01-25 02:55:00,63.8,58.2,30.05,SSE,154,3.0,9.0,82,0.00,,,0.00,VWS V14.01,2013-01-25 08:55:00,
2013-01-25 03:00:00,63.9,58.3,30.05,SSW,192,3.0,6.0,82,0.00,,,0.00,VWS V14.01,2013-01-25 09:00:00,
2013-01-25 03:05:00,63.7,58.5,30.05,South,172,4.0,6.0,83,0.00,,,0.00,VWS V14.01,2013-01-25 09:05:00,
2013-01-25 03:10:00,63.7,58.5,30.05,SSE,168,4.0,7.0,83,0.00,,,0.00,VWS V14.01,2013-01-25 09:10:00,
2013-01-25 03:15:00,63.8,58.5,30.05,South,178,2.0,8.0,83,0.00,,,0.00,VWS V14.01,2013-01-25 09:15:00,
2013-01-25 03:20:00,63.5,58.6,30.05,ESE,123,2.0,4.0,84,0.00,,,0.00,VWS V14.01,2013-01-25 09:20:00,
2013-01-25 03:25:00,63.3,58.4,30.05,SE,126,1.0,3.0,84,0.00,,,0.00,VWS V14.01,2013-01-25 09:25:00,
2013-01-25 03:30:00,63.0,58.1,30.05,ENE,57,1.0,2.0,84,0.00,,,0.00,VWS V14.01,2013-01-25 09:30:00,
2013-01-25 03:35:00,62.7,57.8,30.05,NE,35,2.0,3.0,84,0.00,,,0.00,VWS V14.01,2013-01-25 09:35:00,
2013-01-25 03:40:00,62.2,57.6,30.05,NNE,33,3.0,4.0,85,0.00,,,0.00,VWS V14.01,2013-01-25 09:40:00,
2013-01-25 03:45:00,58.6,55.4,30.05,East,91,1.0,2.0,89,0.00,,,0.00,VWS V14.01,2013-01-25 09:45:00,
2013-01-25 03:50:00,62.2,58.0,30.05,ENE,74,2.0,4.0,86,0.00,,,0.00,VWS V14.01,2013-01-25 09:50:00,
2013-01-25 03:55:00,58.7,55.8,30.05,East,90,1.0,2.0,90,0.00,,,0.00,VWS V14.01,2013-01-25 09:55:00,
2013-01-25 04:00:00,61.4,57.2,30.05,ESE,120,2.0,3.0,86,0.00,,,0.00,VWS V14.01,2013-01-25 10:00:00,
2013-01-25 04:05:00,61.2,57.3,30.05,SSE,150,3.0,5.0,87,0.00,,,0.00,VWS V14.01,2013-01-25 10:05:00,
2013-01-25 04:10:00,59.2,56.3,30.05,SE,130,4.0,4.0,90,0.00,,,0.00,VWS V14.01,2013-01-25 10:10:00,
2013-01-25 04:15:00,60.8,56.9,30.05,SE,130,2.0,3.0,87,0.00,,,0.00,VWS V14.01,2013-01-25 10:15:00,
2013-01-25 04:20:00,59.3,56.7,30.05,SSE,165,2.0,5.0,91,0.00,,,0.00,VWS V14.01,2013-01-25 10:20:00,
2013-01-25 04:25:00,59.8,56.2,30.05,ESE,106,0.0,2.0,88,0.00,,,0.00,VWS V14.01,2013-01-25 10:25:00,
2013-01-25 04:30:00,59.9,57.0,30.05,SSE,168,2.0,2.0,90,0.00,,,0.00,VWS V14.01,2013-01-25 10:30:00,
2013-01-25 04:35:00,59.4,56.2,30.05,East,92,2.0,3.0,89,0.00,,,0.00,VWS V14.01,2013-01-25 10:35:00,
2013-01-25 04:40:00,58.9,55.4,30.05,East,92,0.0,2.0,88,0.00,,,0.00,VWS V14.01,2013-01-25 10:40:00,
2013-01-25 04:45:00,59.7,56.8,30.05,NNE,29,0.0,1.0,90,0.00,,,0.00,VWS V14.01,2013-01-25 10:45:00,
2013-01-25 04:50:00,58.3,55.1,30.05,East,90,2.0,2.0,89,0.00,,,0.00,VWS V14.01,2013-01-25 10:50:00,
2013-01-25 04:55:00,58.7,55.8,30.05,East,90,1.0,2.0,90,0.00,,,0.00,VWS V14.01,2013-01-25 10:55:00,
2013-01-25 05:00:00,58.8,55.9,30.05,East,90,1.0,2.0,90,0.00,,,0.00,VWS V14.01,2013-01-25 11:00:00,
2013-01-25 05:05:00,59.0,56.4,30.05,SE,125,3.0,5.0,91,0.00,,,0.00,VWS V14.01,2013-01-25 11:05:00,
2013-01-25 05:10:00,59.2,56.3,30.05,SE,130,4.0,4.0,90,0.00,,,0.00,VWS V14.01,2013-01-25 11:10:00,
2013-01-25 05:15:00,59.2,56.6,30.05,SE,139,4.0,5.0,91,0.00,,,0.00,VWS V14.01,2013-01-25 11:15:00,
2013-01-25 05:20:00,59.3,56.7,30.05,SSE,165,2.0,5.0,91,0.00,,,0.00,VWS V14.01,2013-01-25 11:20:00,
2013-01-25 05:25:00,57.2,54.6,30.05,NE,36,0.0,0.0,91,0.00,,,0.00,VWS V14.01,2013-01-25 11:25:00,
2013-01-25 05:30:00,59.9,57.0,30.05,SSE,168,2.0,2.0,90,0.00,,,0.00,VWS V14.01,2013-01-25 11:30:00,
2013-01-25 05:35:00,59.9,57.0,30.05,SE,139,2.0,2.0,90,0.00,,,0.00,VWS V14.01,2013-01-25 11:35:00,
2013-01-25 05:40:00,60.0,57.1,30.05,SE,136,1.0,3.0,90,0.00,,,0.00,VWS V14.01,2013-01-25 11:40:00,
2013-01-25 05:45:00,59.7,56.8,30.05,NNE,29,0.0,1.0,90,0.00,,,0.00,VWS V14.01,2013-01-25 11:45:00,
2013-01-25 05:50:00,59.4,56.5,30.05,NNE,31,0.0,0.0,90,0.00,,,0.00,VWS V14.01,2013-01-25 11:50:00,
2013-01-25 05:55:00,57.4,55.1,30.06,NE,35,0.0,0.0,92,0.00,,,0.00,VWS V14.01,2013-01-25 11:55:00,
2013-01-25 06:00:00,59.5,56.9,30.05,NNE,30,1.0,2.0,91,0.00,,,0.00,VWS V14.01,2013-01-25 12:00:00,
2013-01-25 06:05:00,59.1,56.2,30.05,NNE,30,0.0,1.0,90,0.00,,,0.00,VWS V14.01,2013-01-25 12:05:00,
2013-01-25 06:10:00,58.2,55.3,30.05,NE,37,0.0,2.0,90,0.00,,,0.00,VWS V14.01,2013-01-25 12:10:00,
2013-01-25 06:15:00,57.4,54.5,30.05,NE,36,0.0,0.0,90,0.00,,,0.00,VWS V14.01,2013-01-25 12:15:00,
2013-01-25 06:20:00,56.8,54.8,30.06,NE,35,0.0,0.0,93,0.00,,,0.00,VWS V14.01,2013-01-25 12:20:00,
2013-01-25 06:25:00,57.2,54.6,30.05,NE,36,0.0,0.0,91,0.00,,,0.00,VWS V14.01,2013-01-25 12:25:00,
2013-01-25 06:30:00,57.3,55.0,30.06,NE,37,0.0,0.0,92,0.00,,,0.00,VWS V14.01,2013-01-25 12:30:00,
2013-01-25 06:35:00,57.5,55.2,30.06,NE,35,0.0,0.0,92,0.00,,,0.00,VWS V14.01,2013-01-25 12:35:00,
2013-01-25 06:40:00,57.2,54.6,30.06,NE,35,0.0,0.0,91,0.00,,,0.00,VWS V14.01,2013-01-25 12:40:00,
2013-01-25 06:45:00,57.1,54.8,30.06,NE,35,0.0,0.0,92,0.00,,,0.00,VWS V14.01,2013-01-25 12:45:00,
2013-01-25 06:50:00,58.7,56.7,30.06,NE,35,0.0,0.0,93,0.00,,,0.00,VWS V14.01,2013-01-25 12:50:00,
2013-01-25 06:55:00,57.4,55.1,30.06,NE,35,0.0,0.0,92,0.00,,,0.00,VWS V14.01,2013-01-25 12:55:00,
2013-01-25 07:00:00,57.1,54.8,30.06,NE,35,0.0,0.0,92,0.00,,,0.00,VWS V14.01,2013-01-25 13:00:00,
2013-01-25 07:05:00,59.8,57.5,30.07,ENE,77,0.0,1.0,92,0.00,,,0.00,VWS V14.01,2013-01-25 13:05:00,
2013-01-25 07:10:00,56.4,54.1,30.06,NE,35,0.0,0.0,92,0.00,,,0.00,VWS V14.01,2013-01-25 13:10:00,
2013-01-25 07:15:00,56.1,53.8,30.06,NE,35,0.0,0.0,92,0.00,,,0.00,VWS V14.01,2013-01-25 13:15:00,
2013-01-25 07:20:00,56.8,54.8,30.06,NE,35,0.0,0.0,93,0.00,,,0.00,VWS V14.01,2013-01-25 13:20:00,
2013-01-25 07:25:00,62.0,59.7,30.07,ENE,78,1.0,1.0,92,0.00,,,0.00,VWS V14.01,2013-01-25 13:25:00,
2013-01-25 07:30:00,56.5,54.2,30.06,NE,35,0.0,0.0,92,0.00,,,0.00,VWS V14.01,2013-01-25 13:30:00,
2013-01-25 07:35:00,57.2,55.2,30.06,NE,35,0.0,1.0,93,0.00,,,0.00,VWS V14.01,2013-01-25 13:35:00,
2013-01-25 07:40:00,57.6,55.6,30.06,NE,36,0.0,1.0,93,0.00,,,0.00,VWS V14.01,2013-01-25 13:40:00,
2013-01-25 07:45:00,58.1,56.1,30.06,NE,36,0.0,1.0,93,0.00,,,0.00,VWS V14.01,2013-01-25 13:45:00,
2013-01-25 07:50:00,58.7,56.7,30.06,NE,35,0.0,0.0,93,0.00,,,0.00,VWS V14.01,2013-01-25 13:50:00,
2013-01-25 07:55:00,59.3,57.3,30.06,NE,35,0.0,0.0,93,0.00,,,0.00,VWS V14.01,2013-01-25 13:55:00,
2013-01-25 08:00:00,59.7,57.7,30.07,ENE,77,0.0,1.0,93,0.00,,,0.00,VWS V14.01,2013-01-25 14:00:00,
2013-01-25 08:05:00,64.8,60.8,30.08,SE,132,5.0,7.0,87,0.00,,,0.00,VWS V14.01,2013-01-25 14:05:00,
2013-01-25 08:10:00,60.3,58.3,30.07,ENE,77,0.0,1.0,93,0.00,,,0.00,VWS V14.01,2013-01-25 14:10:00,
2013-01-25 08:15:00,60.9,58.9,30.07,ENE,77,0.0,1.0,93,0.00,,,0.00,VWS V14.01,2013-01-25 14:15:00,
2013-01-25 08:20:00,61.5,59.2,30.07,ENE,78,1.0,2.0,92,0.00,,,0.00,VWS V14.01,2013-01-25 14:20:00,
2013-01-25 08:25:00,62.0,59.7,30.07,ENE,78,1.0,1.0,92,0.00,,,0.00,VWS V14.01,2013-01-25 14:25:00,
2013-01-25 08:30:00,62.6,60.2,30.08,ENE,64,1.0,1.0,92,0.00,,,0.00,VWS V14.01,2013-01-25 14:30:00,
2013-01-25 08:35:00,63.0,60.3,30.08,ESE,102,4.0,4.0,91,0.00,,,0.00,VWS V14.01,2013-01-25 14:35:00,
2013-01-25 08:40:00,63.3,60.3,30.08,ESE,113,3.0,4.0,90,0.00,,,0.00,VWS V14.01,2013-01-25 14:40:00,
2013-01-25 08:45:00,63.5,60.5,30.08,ESE,120,3.0,5.0,90,0.00,,,0.00,VWS V14.01,2013-01-25 14:45:00,
2013-01-25 08:50:00,66.5,60.8,30.09,SSE,157,4.0,7.0,82,0.00,,,0.00,VWS V14.01,2013-01-25 14:50:00,
2013-01-25 08:55:00,64.2,60.6,30.08,SE,139,6.0,7.0,88,0.00,,,0.00,VWS V14.01,2013-01-25 14:55:00,
2013-01-25 09:00:00,64.4,60.5,30.08,SSE,160,3.0,7.0,87,0.00,,,0.00,VWS V14.01,2013-01-25 15:00:00,
2013-01-25 09:05:00,67.8,61.1,30.10,SSE,168,5.0,9.0,79,0.00,,,0.00,VWS V14.01,2013-01-25 15:05:00,
2013-01-25 09:10:00,65.1,60.8,30.08,SSE,157,4.0,5.0,86,0.00,,,0.00,VWS V14.01,2013-01-25 15:10:00,
2013-01-25 09:15:00,65.2,60.6,30.08,SSE,167,4.0,6.0,85,0.00,,,0.00,VWS V14.01,2013-01-25 15:15:00,
2013-01-25 09:20:00,65.2,60.6,30.08,SSE,150,1.0,6.0,85,0.00,,,0.00,VWS V14.01,2013-01-25 15:20:00,
2013-01-25 09:25:00,65.5,60.5,30.08,SSE,150,3.0,7.0,84,0.00,,,0.00,VWS V14.01,2013-01-25 15:25:00,
2013-01-25 09:30:00,65.8,60.8,30.09,South,172,4.0,5.0,84,0.00,,,0.00,VWS V14.01,2013-01-25 15:30:00,
2013-01-25 09:35:00,66.1,60.8,30.09,SSE,149,6.0,6.0,83,0.00,,,0.00,VWS V14.01,2013-01-25 15:35:00,
2013-01-25 09:40:00,66.1,60.5,30.09,SSE,160,3.0,6.0,82,0.00,,,0.00,VWS V14.01,2013-01-25 15:40:00,
2013-01-25 09:45:00,66.2,60.5,30.09,SSE,158,2.0,7.0,82,0.00,,,0.00,VWS V14.01,2013-01-25 15:45:00,
2013-01-25 09:50:00,66.5,60.8,30.09,SSE,157,4.0,7.0,82,0.00,,,0.00,VWS V14.01,2013-01-25 15:50:00,
2013-01-25 09:55:00,66.9,61.2,30.10,South,172,5.0,6.0,82,0.00,,,0.00,VWS V14.01,2013-01-25 15:55:00,
2013-01-25 10:00:00,67.1,61.1,30.10,SE,140,2.0,7.0,81,0.00,,,0.00,VWS V14.01,2013-01-25 16:00:00,
2013-01-25 10:05:00,67.8,61.1,30.10,SSE,168,5.0,9.0,79,0.00,,,0.00,VWS V14.01,2013-01-25 16:05:00,
2013-01-25 10:10:00,68.2,61.1,30.09,South,191,4.0,9.0,78,0.00,,,0.00,VWS V14.01,2013-01-25 16:10:00,
2013-01-25 10:15:00,69.0,61.5,30.09,SW,235,5.0,7.0,77,0.00,,,0.00,VWS V14.01,2013-01-25 16:15:00,
2013-01-25 10:20:00,69.1,61.2,30.09,SW,221,3.0,13.0,76,0.00,,,0.00,VWS V14.01,2013-01-25 16:20:00,
2013-01-25 10:25:00,69.4,61.1,30.09,SSW,213,8.0,10.0,75,0.00,,,0.00,VWS V14.01,2013-01-25 16:25:00,
2013-01-25 10:30:00,69.7,61.4,30.09,SSW,196,4.0,13.0,75,0.00,,,0.00,VWS V14.01,2013-01-25 16:30:00,
2013-01-25 10:35:00,69.9,60.9,30.09,South,179,5.0,9.0,73,0.00,,,0.00,VWS V14.01,2013-01-25 16:35:00,
2013-01-25 10:40:00,74.8,61.4,30.08,SSW,210,6.0,10.0,63,0.00,,,0.00,VWS V14.01,2013-01-25 16:40:00,
2013-01-25 10:45:00,70.7,61.2,30.09,SSW,212,8.0,12.0,72,0.00,,,0.00,VWS V14.01,2013-01-25 16:45:00,
2013-01-25 10:50:00,70.8,61.3,30.09,SSW,199,5.0,9.0,72,0.00,,,0.00,VWS V14.01,2013-01-25 16:50:00,
2013-01-25 10:55:00,71.4,61.5,30.09,South,186,5.0,9.0,71,0.00,,,0.00,VWS V14.01,2013-01-25 16:55:00,
2013-01-25 11:00:00,71.6,61.7,30.09,SSW,213,4.0,6.0,71,0.00,,,0.00,VWS V14.01,2013-01-25 17:00:00,
2013-01-25 11:05:00,72.0,61.7,30.09,SSW,199,3.0,7.0,70,0.00,,,0.00,VWS V14.01,2013-01-25 17:05:00,
2013-01-25 11:10:00,72.1,61.4,30.09,SSE,161,6.0,6.0,69,0.00,,,0.00,VWS V14.01,2013-01-25 17:10:00,
2013-01-25 11:15:00,72.6,61.9,30.09,WSW,238,7.0,9.0,69,0.00,,,0.00,VWS V14.01,2013-01-25 17:15:00,
2013-01-25 11:20:00,73.1,61.5,30.09,SSW,206,3.0,11.0,67,0.00,,,0.00,VWS V14.01,2013-01-25 17:20:00,
2013-01-25 11:25:00,76.1,60.3,30.06,South,175,6.0,9.0,58,0.00,,,0.00,VWS V14.01,2013-01-25 17:25:00,
2013-01-25 11:30:00,74.3,61.8,30.08,South,180,6.0,9.0,65,0.00,,,0.00,VWS V14.01,2013-01-25 17:30:00,
2013-01-25 11:35:00,74.2,61.7,30.08,WNW,298,1.0,7.0,65,0.00,,,0.00,VWS V14.01,2013-01-25 17:35:00,
2013-01-25 11:40:00,74.8,61.4,30.08,SSW,210,6.0,10.0,63,0.00,,,0.00,VWS V14.01,2013-01-25 17:40:00,
2013-01-25 11:45:00,75.1,61.2,30.08,West,277,4.0,12.0,62,0.00,,,0.00,VWS V14.01,2013-01-25 17:45:00,
2013-01-25 11:50:00,75.4,61.0,30.07,SW,217,9.0,11.0,61,0.00,,,0.00,VWS V14.01,2013-01-25 17:50:00,
2013-01-25 11:55:00,75.5,61.1,30.07,South,188,4.0,10.0,61,0.00,,,0.00,VWS V14.01,2013-01-25 17:55:00,
2013-01-25 12:00:00,76.0,61.1,30.07,South,172,9.0,9.0,60,0.00,,,0.00,VWS V14.01,2013-01-25 18:00:00,
2013-01-25 12:05:00,76.3,61.4,30.07,WSW,237,6.0,10.0,60,0.00,,,0.00,VWS V14.01,2013-01-25 18:05:00,
2013-01-25 12:10:00,76.6,60.7,30.07,South,189,9.0,12.0,58,0.00,,,0.00,VWS V14.01,2013-01-25 18:10:00,
2013-01-25 12:15:00,75.9,60.6,30.07,SSE,149,6.0,9.0,59,0.00,,,0.00,VWS V14.01,2013-01-25 18:15:00,
2013-01-25 12:20:00,76.4,60.5,30.06,SW,236,5.0,10.0,58,0.00,,,0.00,VWS V14.01,2013-01-25 18:20:00,
2013-01-25 12:25:00,76.1,60.3,30.06,South,175,6.0,9.0,58,0.00,,,0.00,VWS V14.01,2013-01-25 18:25:00,
2013-01-25 12:30:00,76.4,60.1,30.06,WNW,292,2.0,9.0,57,0.00,,,0.00,VWS V14.01,2013-01-25 18:30:00,
2013-01-25 12:35:00,77.2,60.8,30.05,SW,220,7.0,12.0,57,0.00,,,0.00,VWS V14.01,2013-01-25 18:35:00,
2013-01-25 12:40:00,77.1,60.7,30.05,SSW,203,8.0,10.0,57,0.00,,,0.00,VWS V14.01,2013-01-25 18:40:00,
2013-01-25 12:45:00,77.5,61.1,30.05,SSW,196,4.0,9.0,57,0.00,,,0.00,VWS V14.01,2013-01-25 18:45:00,
2013-01-25 12:50:00,77.5,60.6,30.04,SW,215,9.0,10.0,56,0.00,,,0.00,VWS V14.01,2013-01-25 18:50:00,
2013-01-25 12:55:00,77.8,60.9,30.04,SW,228,9.0,11.0,56,0.00,,,0.00,VWS V14.01,2013-01-25 18:55:00,
2013-01-25 13:00:00,78.0,60.5,30.04,SSE,156,4.0,11.0,55,0.00,,,0.00,VWS V14.01,2013-01-25 19:00:00,
2013-01-25 13:05:00,80.4,59.5,30.00,South,183,7.0,12.0,49,0.00,,,0.00,VWS V14.01,2013-01-25 19:05:00,
2013-01-25 13:10:00,78.3,59.8,30.03,SW,225,6.0,11.0,53,0.00,,,0.00,VWS V14.01,2013-01-25 19:10:00,
2013-01-25 13:15:00,78.5,60.0,30.03,South,178,5.0,13.0,53,0.00,,,0.00,VWS V14.01,2013-01-25 19:15:00,
2013-01-25 13:20:00,78.5,60.0,30.02,SSW,213,7.0,9.0,53,0.00,,,0.00,VWS V14.01,2013-01-25 19:20:00,
2013-01-25 13:25:00,78.3,59.8,30.02,SSE,163,6.0,9.0,53,0.00,,,0.00,VWS V14.01,2013-01-25 19:25:00,
2013-01-25 13:30:00,78.6,60.1,30.01,SW,219,11.0,14.0,53,0.00,,,0.00,VWS V14.01,2013-01-25 19:30:00,
2013-01-25 13:35:00,78.7,59.6,30.01,SW,217,5.0,12.0,52,0.00,,,0.00,VWS V14.01,2013-01-25 19:35:00,
2013-01-25 13:40:00,78.9,59.2,30.01,SE,126,6.0,13.0,51,0.00,,,0.00,VWS V14.01,2013-01-25 19:40:00,
2013-01-25 13:45:00,79.1,60.0,30.01,SSE,153,6.0,16.0,52,0.00,,,0.00,VWS V14.01,2013-01-25 19:45:00,
2013-01-25 13:50:00,80.0,60.3,30.00,SSE,147,7.0,10.0,51,0.00,,,0.00,VWS V14.01,2013-01-25 19:50:00,
2013-01-25 13:55:00,80.0,58.6,30.00,SSW,196,6.0,10.0,48,0.00,,,0.00,VWS V14.01,2013-01-25 19:55:00,
2013-01-25 14:00:00,80.1,59.2,30.00,SW,223,7.0,7.0,49,0.00,,,0.00,VWS V14.01,2013-01-25 20:00:00,
2013-01-25 14:05:00,81.8,58.4,29.97,SSE,156,4.0,8.0,45,0.00,,,0.00,VWS V14.01,2013-01-25 20:05:00,
2013-01-25 14:10:00,80.6,58.5,30.00,SSW,201,9.0,12.0,47,0.00,,,0.00,VWS V14.01,2013-01-25 20:10:00,
2013-01-25 14:15:00,80.9,58.8,29.99,WSW,241,7.0,9.0,47,0.00,,,0.00,VWS V14.01,2013-01-25 20:15:00,
2013-01-25 14:20:00,81.6,58.8,29.99,SSW,199,8.0,9.0,46,0.00,,,0.00,VWS V14.01,2013-01-25 20:20:00,
2013-01-25 14:25:00,81.6,58.2,29.99,South,176,5.0,8.0,45,0.00,,,0.00,VWS V14.01,2013-01-25 20:25:00,
2013-01-25 14:30:00,81.2,59.1,29.99,South,170,5.0,8.0,47,0.00,,,0.00,VWS V14.01,2013-01-25 20:30:00,
2013-01-25 14:35:00,82.0,58.0,29.98,SSW,205,5.0,8.0,44,0.00,,,0.00,VWS V14.01,2013-01-25 20:35:00,
2013-01-25 14:40:00,81.8,59.0,29.98,South,188,4.0,11.0,46,0.00,,,0.00,VWS V14.01,2013-01-25 20:40:00,
2013-01-25 14:45:00,81.8,58.4,29.98,SSW,210,10.0,12.0,45,0.00,,,0.00,VWS V14.01,2013-01-25 20:45:00,
2013-01-25 14:50:00,81.8,57.8,29.98,SSE,159,7.0,11.0,44,0.00,,,0.00,VWS V14.01,2013-01-25 20:50:00,
2013-01-25 14:55:00,81.7,58.3,29.98,South,181,5.0,10.0,45,0.00,,,0.00,VWS V14.01,2013-01-25 20:55:00,
2013-01-25 15:00:00,81.8,58.4,29.98,South,172,3.0,9.0,45,0.00,,,0.00,VWS V14.01,2013-01-25 21:00:00,
2013-01-25 15:05:00,81.8,58.4,29.97,SSE,156,4.0,8.0,45,0.00,,,0.00,VWS V14.01,2013-01-25 21:05:00,
2013-01-25 15:10:00,82.0,58.0,29.97,SE,146,9.0,12.0,44,0.00,,,0.00,VWS V14.01,2013-01-25 21:10:00,
2013-01-25 15:15:00,82.1,57.4,29.98,SSE,167,8.0,10.0,43,0.00,,,0.00,VWS V14.01,2013-01-25 21:15:00,
2013-01-25 15:20:00,81.8,57.1,29.98,South,176,3.0,10.0,43,0.00,,,0.00,VWS V14.01,2013-01-25 21:20:00,
2013-01-25 15:25:00,82.1,57.4,29.98,SW,224,6.0,11.0,43,0.00,,,0.00,VWS V14.01,2013-01-25 21:25:00,
2013-01-25 15:30:00,81.8,57.1,29.98,SSE,160,3.0,8.0,43,0.00,,,0.00,VWS V14.01,2013-01-25 21:30:00,
2013-01-25 15:35:00,82.0,58.0,29.98,SSW,205,5.0,8.0,44,0.00,,,0.00,VWS V14.01,2013-01-25 21:35:00,
2013-01-25 15:40:00,81.8,58.4,29.98,South,191,6.0,10.0,45,0.00,,,0.00,VWS V14.01,2013-01-25 21:40:00,
2013-01-25 15:45:00,81.9,57.2,29.98,SW,217,8.0,10.0,43,0.00,,,0.00,VWS V14.01,2013-01-25 21:45:00,
2013-01-25 15:50:00,81.7,58.3,29.98,SSW,196,7.0,10.0,45,0.00,,,0.00,VWS V14.01,2013-01-25 21:50:00,
2013-01-25 15:55:00,81.4,59.3,29.98,SSW,212,7.0,8.0,47,0.00,,,0.00,VWS V14.01,2013-01-25 21:55:00,
2013-01-25 16:00:00,81.2,59.7,29.98,SSE,151,5.0,11.0,48,0.00,,,0.00,VWS V14.01,2013-01-25 22:00:00,
2013-01-25 16:05:00,78.1,59.1,29.98,SE,125,6.0,10.0,52,0.00,,,0.00,VWS V14.01,2013-01-25 22:05:00,
2013-01-25 16:10:00,80.1,59.8,29.98,SSE,156,8.0,12.0,50,0.00,,,0.00,VWS V14.01,2013-01-25 22:10:00,
2013-01-25 16:15:00,79.8,59.5,29.98,SSE,163,6.0,10.0,50,0.00,,,0.00,VWS V14.01,2013-01-25 22:15:00,
2013-01-25 16:20:00,79.7,59.4,29.97,SE,129,4.0,9.0,50,0.00,,,0.00,VWS V14.01,2013-01-25 22:20:00,
2013-01-25 16:25:00,79.5,58.7,29.98,SSE,158,5.0,10.0,49,0.00,,,0.00,VWS V14.01,2013-01-25 22:25:00,
2013-01-25 16:30:00,79.3,59.1,29.98,SE,125,5.0,10.0,50,0.00,,,0.00,VWS V14.01,2013-01-25 22:30:00,
2013-01-25 16:35:00,79.2,59.5,29.98,SSE,154,7.0,9.0,51,0.00,,,0.00,VWS V14.01,2013-01-25 22:35:00,
2013-01-25 16:40:00,78.9,59.8,29.98,SSE,157,5.0,11.0,52,0.00,,,0.00,VWS V14.01,2013-01-25 22:40:00,
2013-01-25 16:45:00,78.7,59.6,29.98,SSE,160,11.0,11.0,52,0.00,,,0.00,VWS V14.01,2013-01-25 22:45:00,
2013-01-25 16:50:00,78.4,59.9,29.98,SE,136,6.0,13.0,53,0.00,,,0.00,VWS V14.01,2013-01-25 22:50:00,
2013-01-25 16:55:00,78.2,59.7,29.98,SE,140,3.0,12.0,53,0.00,,,0.00,VWS V14.01,2013-01-25 22:55:00,
2013-01-25 17:00:00,78.0,59.5,29.98,SSE,153,5.0,11.0,53,0.00,,,0.00,VWS V14.01,2013-01-25 23:00:00,
2013-01-25 17:05:00,78.1,59.1,29.98,SE,125,6.0,10.0,52,0.00,,,0.00,VWS V14.01,2013-01-25 23:05:00,
2013-01-25 17:10:00,77.9,59.4,29.98,South,171,4.0,8.0,53,0.00,,,0.00,VWS V14.01,2013-01-25 23:10:00,
2013-01-25 17:15:00,77.7,59.2,29.99,SSW,206,8.0,9.0,53,0.00,,,0.00,VWS V14.01,2013-01-25 23:15:00,
2013-01-25 17:20:00,77.4,59.0,29.99,SSE,156,4.0,8.0,53,0.00,,,0.00,VWS V14.01,2013-01-25 23:20:00,
2013-01-25 17:25:00,77.0,59.1,29.99,SE,146,8.0,9.0,54,0.00,,,0.00,VWS V14.01,2013-01-25 23:25:00,
2013-01-25 17:30:00,76.9,59.5,29.99,SSE,151,3.0,9.0,55,0.00,,,0.00,VWS V14.01,2013-01-25 23:30:00,
2013-01-25 17:35:00,76.6,59.2,29.99,ESE,123,3.0,8.0,55,0.00,,,0.00,VWS V14.01,2013-01-25 23:35:00,
2013-01-25 17:40:00,76.3,59.5,29.99,SE,133,4.0,6.0,56,0.00,,,0.00,VWS V14.01,2013-01-25 23:40:00,
2013-01-25 17:45:00,76.2,59.4,29.99,SE,126,4.0,6.0,56,0.00,,,0.00,VWS V14.01,2013-01-25 23:45:00,
2013-01-25 17:50:00,66.4,54.7,30.03,NE,39,11.0,17.0,66,0.00,,,0.00,VWS V14.01,2013-01-25 23:50:00,
2013-01-25 17:55:00,75.6,59.3,30.00,SE,126,4.0,6.0,57,0.00,,,0.00,VWS V14.01,2013-01-25 23:55:00,
2013-01-25 18:00:00,75.3,59.5,30.00,East,95,3.0,5.0,58,0.00,,,0.00,VWS V14.01,2013-01-26 00:00:00,
2013-01-25 18:05:00,65.5,54.3,30.04,ENE,61,14.0,20.0,67,0.00,,,0.00,VWS V14.01,2013-01-26 00:05:00,
2013-01-25 18:10:00,74.2,59.0,30.01,NNE,23,14.0,17.0,59,0.00,,,0.00,VWS V14.01,2013-01-26 00:10:00,
2013-01-25 18:15:00,72.3,58.1,30.02,NNE,25,11.0,15.0,61,0.00,,,0.00,VWS V14.01,2013-01-26 00:15:00,
2013-01-25 18:20:00,70.3,57.1,30.02,NE,39,9.0,18.0,63,0.00,,,0.00,VWS V14.01,2013-01-26 00:20:00,
2013-01-25 18:25:00,69.2,57.0,30.02,NNE,19,11.0,16.0,65,0.00,,,0.00,VWS V14.01,2013-01-26 00:25:00,
2013-01-25 18:30:00,64.0,53.6,30.04,NE,42,10.0,16.0,69,0.00,,,0.00,VWS V14.01,2013-01-26 00:30:00,
2013-01-25 18:35:00,67.8,56.0,30.03,NE,37,10.0,19.0,66,0.00,,,0.00,VWS V14.01,2013-01-26 00:35:00,
2013-01-25 18:40:00,67.3,55.6,30.03,NE,54,8.0,17.0,66,0.00,,,0.00,VWS V14.01,2013-01-26 00:40:00,
2013-01-25 18:45:00,66.7,54.6,30.03,NE,39,9.0,18.0,65,0.00,,,0.00,VWS V14.01,2013-01-26 00:45:00,
2013-01-25 18:50:00,66.4,54.7,30.03,NE,39,11.0,17.0,66,0.00,,,0.00,VWS V14.01,2013-01-26 00:50:00,
2013-01-25 18:55:00,66.1,54.4,30.04,ENE,66,8.0,19.0,66,0.00,,,0.00,VWS V14.01,2013-01-26 00:55:00,
2013-01-25 19:00:00,65.8,54.1,30.04,NE,37,11.0,15.0,66,0.00,,,0.00,VWS V14.01,2013-01-26 01:00:00,
2013-01-25 19:05:00,65.5,54.3,30.04,ENE,61,14.0,20.0,67,0.00,,,0.00,VWS V14.01,2013-01-26 01:05:00,
2013-01-25 19:10:00,65.3,54.1,30.04,NE,56,10.0,16.0,67,0.00,,,0.00,VWS V14.01,2013-01-26 01:10:00,
2013-01-25 19:15:00,64.9,54.1,30.04,NE,38,10.0,14.0,68,0.00,,,0.00,VWS V14.01,2013-01-26 01:15:00,
2013-01-25 19:20:00,61.3,52.6,30.06,NNE,29,11.0,17.0,73,0.00,,,0.00,VWS V14.01,2013-01-26 01:20:00,
2013-01-25 19:25:00,64.3,53.5,30.04,NE,51,11.0,15.0,68,0.00,,,0.00,VWS V14.01,2013-01-26 01:25:00,
2013-01-25 19:30:00,64.0,53.6,30.04,NE,42,10.0,16.0,69,0.00,,,0.00,VWS V14.01,2013-01-26 01:30:00,
2013-01-25 19:35:00,63.7,53.3,30.04,NE,43,11.0,17.0,69,0.00,,,0.00,VWS V14.01,2013-01-26 01:35:00,
2013-01-25 19:40:00,63.5,53.5,30.05,NE,38,12.0,17.0,70,0.00,,,0.00,VWS V14.01,2013-01-26 01:40:00,
2013-01-25 19:45:00,63.3,53.4,30.05,NE,40,11.0,17.0,70,0.00,,,0.00,VWS V14.01,2013-01-26 01:45:00,
2013-01-25 19:50:00,63.1,53.6,30.05,NNE,23,16.0,19.0,71,0.00,,,0.00,VWS V14.01,2013-01-26 01:50:00,
2013-01-25 19:55:00,62.8,53.3,30.05,NE,52,13.0,16.0,71,0.00,,,0.00,VWS V14.01,2013-01-26 01:55:00,
2013-01-25 20:00:00,62.5,53.0,30.04,NE,35,6.0,17.0,71,0.00,,,0.00,VWS V14.01,2013-01-26 02:00:00,
2013-01-25 20:05:00,62.2,53.1,30.05,ENE,57,12.0,15.0,72,0.00,,,0.00,VWS V14.01,2013-01-26 02:05:00,
2013-01-25 20:10:00,61.9,52.8,30.05,NE,52,9.0,15.0,72,0.00,,,0.00,VWS V14.01,2013-01-26 02:10:00,
2013-01-25 20:15:00,61.6,52.5,30.05,NNE,33,17.0,17.0,72,0.00,,,0.00,VWS V14.01,2013-01-26 02:15:00,
2013-01-25 20:20:00,61.3,52.6,30.06,NNE,29,11.0,17.0,73,0.00,,,0.00,VWS V14.01,2013-01-26 02:20:00,
2013-01-25 20:25:00,61.1,52.4,30.06,NE,49,15.0,19.0,73,0.00,,,0.00,VWS V14.01,2013-01-26 02:25:00,
2013-01-25 20:30:00,60.8,52.1,30.06,NNE,19,11.0,17.0,73,0.00,,,0.00,VWS V14.01,2013-01-26 02:30:00,
2013-01-25 20:35:00,60.5,52.2,30.06,NE,54,8.0,17.0,74,0.00,,,0.00,VWS V14.01,2013-01-26 02:35:00,
2013-01-25 20:40:00,60.2,51.9,30.06,ENE,73,11.0,14.0,74,0.00,,,0.00,VWS V14.01,2013-01-26 02:40:00,
2013-01-25 20:45:00,60.0,51.7,30.07,NNE,26,8.0,17.0,74,0.00,,,0.00,VWS V14.01,2013-01-26 02:45:00,
2013-01-25 20:50:00,59.7,51.8,30.07,NNE,28,11.0,18.0,75,0.00,,,0.00,VWS V14.01,2013-01-26 02:50:00,
2013-01-25 20:55:00,59.5,51.6,30.07,North,358,7.0,16.0,75,0.00,,,0.00,VWS V14.01,2013-01-26 02:55:00,
2013-01-25 21:00:00,59.2,51.3,30.08,NNE,14,7.0,12.0,75,0.00,,,0.00,VWS V14.01,2013-01-26 03:00:00,
2013-01-25 21:05:00,58.9,50.6,30.08,NNE,16,6.0,13.0,74,0.00,,,0.00,VWS V14.01,2013-01-26 03:05:00,
2013-01-25 21:10:00,58.5,50.2,30.09,North,7,5.0,14.0,74,0.00,,,0.00,VWS V14.01,2013-01-26 03:10:00,
2013-01-25 21:15:00,58.2,50.0,30.09,NNE,28,4.0,7.0,74,0.00,,,0.00,VWS V14.01,2013-01-26 03:15:00,
2013-01-25 21:20:00,57.8,49.6,30.09,NE,40,3.0,7.0,74,0.00,,,0.00,VWS V14.01,2013-01-26 03:20:00,
2013-01-25 21:25:00,57.2,49.0,30.09,NNW,347,2.0,9.0,74,0.00,,,0.00,VWS V14.01,2013-01-26 03:25:00,
2013-01-25 21:30:00,56.9,48.7,30.09,NNE,28,5.0,9.0,74,0.00,,,0.00,VWS V14.01,2013-01-26 03:30:00,
2013-01-25 21:35:00,56.4,48.2,30.10,NNE,20,2.0,8.0,74,0.00,,,0.00,VWS V14.01,2013-01-26 03:35:00,
2013-01-25 21:40:00,56.0,47.8,30.10,North,355,5.0,8.0,74,0.00,,,0.00,VWS V14.01,2013-01-26 03:40:00,
2013-01-25 21:45:00,55.6,47.8,30.10,North,357,7.0,7.0,75,0.00,,,0.00,VWS V14.01,2013-01-26 03:45:00,
2013-01-25 21:50:00,55.1,47.3,30.11,North,360,10.0,10.0,75,0.00,,,0.00,VWS V14.01,2013-01-26 03:50:00,
2013-01-25 21:55:00,54.8,47.0,30.11,North,352,3.0,11.0,75,0.00,,,0.00,VWS V14.01,2013-01-26 03:55:00,
2013-01-25 22:00:00,52.4,46.1,30.14,NE,35,4.0,8.0,79,0.00,,,0.00,VWS V14.01,2013-01-26 04:00:00,
2013-01-25 22:05:00,54.3,46.9,30.11,North,1,8.0,8.0,76,0.00,,,0.00,VWS V14.01,2013-01-26 04:05:00,
2013-01-25 22:10:00,54.2,46.8,30.11,North,357,6.0,8.0,76,0.00,,,0.00,VWS V14.01,2013-01-26 04:10:00,
2013-01-25 22:15:00,53.9,46.9,30.11,North,5,6.0,8.0,77,0.00,,,0.00,VWS V14.01,2013-01-26 04:15:00,
2013-01-25 22:20:00,53.7,46.7,30.11,North,3,5.0,7.0,77,0.00,,,0.00,VWS V14.01,2013-01-26 04:20:00,
2013-01-25 22:25:00,53.4,46.4,30.12,NNE,13,6.0,6.0,77,0.00,,,0.00,VWS V14.01,2013-01-26 04:25:00,
2013-01-25 22:30:00,53.3,46.6,30.12,North,2,3.0,6.0,78,0.00,,,0.00,VWS V14.01,2013-01-26 04:30:00,
2013-01-25 22:35:00,53.0,46.3,30.13,North,351,2.0,4.0,78,0.00,,,0.00,VWS V14.01,2013-01-26 04:35:00,
2013-01-25 22:40:00,52.9,46.2,30.13,NNW,337,4.0,4.0,78,0.00,,,0.00,VWS V14.01,2013-01-26 04:40:00,
2013-01-25 22:45:00,52.8,46.5,30.13,North,352,4.0,4.0,79,0.00,,,0.00,VWS V14.01,2013-01-26 04:45:00,
2013-01-25 22:50:00,52.6,46.3,30.13,NNE,21,0.0,5.0,79,0.00,,,0.00,VWS V14.01,2013-01-26 04:50:00,
2013-01-25 22:55:00,52.4,46.1,30.14,NNE,25,1.0,3.0,79,0.00,,,0.00,VWS V14.01,2013-01-26 04:55:00,
2013-01-25 23:00:00,52.4,46.1,30.14,NE,35,4.0,8.0,79,0.00,,,0.00,VWS V14.01,2013-01-26 05:00:00,
2013-01-25 23:05:00,50.9,44.6,30.14,NNE,16,2.0,5.0,79,0.00,,,0.00,VWS V14.01,2013-01-26 05:05:00,
2013-01-25 23:10:00,52.2,45.9,30.13,North,11,5.0,8.0,79,0.00,,,0.00,VWS V14.01,2013-01-26 05:10:00,
2013-01-25 23:15:00,52.1,46.1,30.13,NNE,16,4.0,7.0,80,0.00,,,0.00,VWS V14.01,2013-01-26 05:15:00,
2013-01-25 23:20:00,52.0,46.0,30.13,North,5,4.0,6.0,80,0.00,,,0.00,VWS V14.01,2013-01-26 05:20:00,
2013-01-25 23:25:00,51.8,45.8,30.14,NNE,13,4.0,4.0,80,0.00,,,0.00,VWS V14.01,2013-01-26 05:25:00,
2013-01-25 23:30:00,51.7,45.7,30.14,NNE,26,3.0,5.0,80,0.00,,,0.00,VWS V14.01,2013-01-26 05:30:00,
2013-01-25 23:35:00,51.6,45.6,30.14,North,355,2.0,5.0,80,0.00,,,0.00,VWS V14.01,2013-01-26 05:35:00,
2013-01-25 23:40:00,51.4,45.5,30.14,North,354,0.0,6.0,80,0.00,,,0.00,VWS V14.01,2013-01-26 05:40:00,
2013-01-25 23:45:00,51.3,45.3,30.14,NNW,343,1.0,2.0,80,0.00,,,0.00,VWS V14.01,2013-01-26 05:45:00,
2013-01-25 23:50:00,51.2,45.2,30.14,North,355,4.0,5.0,80,0.00,,,0.00,VWS V14.01,2013-01-26 05:50:00,
2013-01-25 23:55:00,50.5,44.6,30.14,NNW,347,2.0,4.0,80,0.00,,,0.00,VWS V14.01,2013-01-26 05:55:00,